sensor_id;sensor_type;location;lat;lon;timestamp;P1;durP1;ratioP1;P2;durP2;ratioP2
17949;SDS011;9100;48.700;9.316;2022-10-26T00:01:01;6.6;;;3.8;;
17949;SDS011;9100;48.700;9.316;2022-10-26T00:01:52;6.6;;;3.8;;
17949;SDS011;9100;48.700;9.316;2022-10-26T00:02:52;6.6;;;3.8;;
17949;SDS011;9100;48.700;9.316;2022-10-26T00:02:59;8.8;;;3.4;;
17949;SDS011;9100;48.700;9.316;2022-10-26T00:03:53;8.8;;;3.4;;
17949;SDS011;9100;48.700;9.316;2022-10-26T00:04:52;8.8;;;3.4;;
17949;SDS011;9100;48.700;9.316;2022-10-26T00:05:52;8.8;;;3.4;;
17949;SDS011;9100;48.700;9.316;2022-10-26T00:06:52;8.8;;;3.4;;
17949;SDS011;9100;48.700;9.316;2022-10-26T00:07:52;8.8;;;3.4;;
17949;SDS011;9100;48.700;9.316;2022-10-26T00:07:59;4.2;;;3.8;;
17949;SDS011;9100;48.700;9.316;2022-10-26T00:08:52;4.2;;;3.8;;
17949;SDS011;9100;48.700;9.316;2022-10-26T00:09:52;4.2;;;3.8;;
17949;SDS011;9100;48.700;9.316;2022-10-26T00:10:55;4.2;;;3.8;;
17949;SDS011;9100;48.700;9.316;2022-10-26T00:11:52;4.2;;;3.8;;
17949;SDS011;9100;48.700;9.316;2022-10-26T00:12:52;4.2;;;3.8;;
17949;SDS011;9100;48.700;9.316;2022-10-26T00:12:59;6;;;3.7;;
17949;SDS011;9100;48.700;9.316;2022-10-26T00:13:52;6;;;3.7;;
17949;SDS011;9100;48.700;9.316;2022-10-26T00:14:52;6;;;3.7;;
17949;SDS011;9100;48.700;9.316;2022-10-26T00:15:52;6;;;3.7;;
17949;SDS011;9100;48.700;9.316;2022-10-26T00:16:52;6;;;3.7;;
17949;SDS011;9100;48.700;9.316;2022-10-26T00:17:52;6;;;3.7;;
17949;SDS011;9100;48.700;9.316;2022-10-26T00:17:59;4.3;;;3.6;;
17949;SDS011;9100;48.700;9.316;2022-10-26T00:18:52;4.3;;;3.6;;
17949;SDS011;9100;48.700;9.316;2022-10-26T00:19:52;4.3;;;3.6;;
17949;SDS011;9100;48.700;9.316;2022-10-26T00:20:52;4.3;;;3.6;;
17949;SDS011;9100;48.700;9.316;2022-10-26T00:21:52;4.3;;;3.6;;
17949;SDS011;9100;48.700;9.316;2022-10-26T00:22:52;4.3;;;3.6;;
17949;SDS011;9100;48.700;9.316;2022-10-26T00:22:59;4.8;;;3.2;;
17949;SDS011;9100;48.700;9.316;2022-10-26T00:23:52;4.8;;;3.2;;
17949;SDS011;9100;48.700;9.316;2022-10-26T00:24:52;4.8;;;3.2;;
17949;SDS011;9100;48.700;9.316;2022-10-26T00:25:53;4.8;;;3.2;;
17949;SDS011;9100;48.700;9.316;2022-10-26T00:26:52;4.8;;;3.2;;
17949;SDS011;9100;48.700;9.316;2022-10-26T00:27:52;4.8;;;3.2;;
17949;SDS011;9100;48.700;9.316;2022-10-26T00:27:59;4;;;3.3;;
17949;SDS011;9100;48.700;9.316;2022-10-26T00:28:52;4;;;3.3;;
17949;SDS011;9100;48.700;9.316;2022-10-26T00:29:52;4;;;3.3;;
17949;SDS011;9100;48.700;9.316;2022-10-26T00:30:52;4;;;3.3;;
17949;SDS011;9100;48.700;9.316;2022-10-26T00:31:52;4;;;3.3;;
17949;SDS011;9100;48.700;9.316;2022-10-26T00:32:52;4;;;3.3;;
17949;SDS011;9100;48.700;9.316;2022-10-26T00:32:59;5.6;;;3.8;;
17949;SDS011;9100;48.700;9.316;2022-10-26T00:33:52;5.6;;;3.8;;
17949;SDS011;9100;48.700;9.316;2022-10-26T00:34:52;5.6;;;3.8;;
17949;SDS011;9100;48.700;9.316;2022-10-26T00:35:53;5.6;;;3.8;;
17949;SDS011;9100;48.700;9.316;2022-10-26T00:36:52;5.6;;;3.8;;
17949;SDS011;9100;48.700;9.316;2022-10-26T00:37:53;5.6;;;3.8;;
17949;SDS011;9100;48.700;9.316;2022-10-26T00:37:59;8.3;;;4.1;;
17949;SDS011;9100;48.700;9.316;2022-10-26T00:38:53;8.3;;;4.1;;
17949;SDS011;9100;48.700;9.316;2022-10-26T00:39:52;8.3;;;4.1;;
17949;SDS011;9100;48.700;9.316;2022-10-26T00:40:52;8.3;;;4.1;;
17949;SDS011;9100;48.700;9.316;2022-10-26T00:41:52;8.3;;;4.1;;
17949;SDS011;9100;48.700;9.316;2022-10-26T00:42:52;8.3;;;4.1;;
17949;SDS011;9100;48.700;9.316;2022-10-26T00:42:59;4.9;;;3.9;;
17949;SDS011;9100;48.700;9.316;2022-10-26T00:43:52;4.9;;;3.9;;
17949;SDS011;9100;48.700;9.316;2022-10-26T00:44:55;4.9;;;3.9;;
17949;SDS011;9100;48.700;9.316;2022-10-26T00:45:53;4.9;;;3.9;;
17949;SDS011;9100;48.700;9.316;2022-10-26T00:46:52;4.9;;;3.9;;
17949;SDS011;9100;48.700;9.316;2022-10-26T00:47:52;4.9;;;3.9;;
17949;SDS011;9100;48.700;9.316;2022-10-26T00:48:00;3.4;;;3.2;;
17949;SDS011;9100;48.700;9.316;2022-10-26T00:48:53;3.4;;;3.2;;
17949;SDS011;9100;48.700;9.316;2022-10-26T00:49:52;3.4;;;3.2;;
17949;SDS011;9100;48.700;9.316;2022-10-26T00:50:52;3.4;;;3.2;;
17949;SDS011;9100;48.700;9.316;2022-10-26T00:51:52;3.4;;;3.2;;
17949;SDS011;9100;48.700;9.316;2022-10-26T00:52:52;3.4;;;3.2;;
17949;SDS011;9100;48.700;9.316;2022-10-26T00:52:59;6.4;;;3.8;;
17949;SDS011;9100;48.700;9.316;2022-10-26T00:53:52;6.4;;;3.8;;
17949;SDS011;9100;48.700;9.316;2022-10-26T00:54:52;6.4;;;3.8;;
17949;SDS011;9100;48.700;9.316;2022-10-26T00:55:52;6.4;;;3.8;;
17949;SDS011;9100;48.700;9.316;2022-10-26T00:56:52;6.4;;;3.8;;
17949;SDS011;9100;48.700;9.316;2022-10-26T00:57:52;6.4;;;3.8;;
17949;SDS011;9100;48.700;9.316;2022-10-26T00:57:59;6.1;;;4.3;;
17949;SDS011;9100;48.700;9.316;2022-10-26T00:58:52;6.1;;;4.3;;
17949;SDS011;9100;48.700;9.316;2022-10-26T00:59:52;6.1;;;4.3;;
17949;SDS011;9100;48.700;9.316;2022-10-26T01:00:52;6.1;;;4.3;;
17949;SDS011;9100;48.700;9.316;2022-10-26T01:01:52;6.1;;;4.3;;
17949;SDS011;9100;48.700;9.316;2022-10-26T01:02:52;6.1;;;4.3;;
17949;SDS011;9100;48.700;9.316;2022-10-26T01:03:00;4.6;;;4;;
17949;SDS011;9100;48.700;9.316;2022-10-26T01:03:52;4.6;;;4;;
17949;SDS011;9100;48.700;9.316;2022-10-26T01:04:52;4.6;;;4;;
17949;SDS011;9100;48.700;9.316;2022-10-26T01:05:52;4.6;;;4;;
17949;SDS011;9100;48.700;9.316;2022-10-26T01:06:52;4.6;;;4;;
17949;SDS011;9100;48.700;9.316;2022-10-26T01:07:52;4.6;;;4;;
17949;SDS011;9100;48.700;9.316;2022-10-26T01:07:59;3.8;;;3.5;;
17949;SDS011;9100;48.700;9.316;2022-10-26T01:08:52;3.8;;;3.5;;
17949;SDS011;9100;48.700;9.316;2022-10-26T01:09:52;3.8;;;3.5;;
17949;SDS011;9100;48.700;9.316;2022-10-26T01:10:52;3.8;;;3.5;;
17949;SDS011;9100;48.700;9.316;2022-10-26T01:11:52;3.8;;;3.5;;
17949;SDS011;9100;48.700;9.316;2022-10-26T01:12:52;3.8;;;3.5;;
17949;SDS011;9100;48.700;9.316;2022-10-26T01:12:59;4.7;;;4;;
17949;SDS011;9100;48.700;9.316;2022-10-26T01:13:52;4.7;;;4;;
17949;SDS011;9100;48.700;9.316;2022-10-26T01:14:52;4.7;;;4;;
17949;SDS011;9100;48.700;9.316;2022-10-26T01:15:54;4.7;;;4;;
17949;SDS011;9100;48.700;9.316;2022-10-26T01:16:55;4.7;;;4;;
17949;SDS011;9100;48.700;9.316;2022-10-26T01:17:53;4.7;;;4;;
17949;SDS011;9100;48.700;9.316;2022-10-26T01:18:00;5.1;;;3.6;;
17949;SDS011;9100;48.700;9.316;2022-10-26T01:18:53;5.1;;;3.6;;
17949;SDS011;9100;48.700;9.316;2022-10-26T01:20:03;5.1;;;3.6;;
17949;SDS011;9100;48.700;9.316;2022-10-26T01:21:05;5.1;;;3.6;;
17949;SDS011;9100;48.700;9.316;2022-10-26T01:21:52;5.1;;;3.6;;
17949;SDS011;9100;48.700;9.316;2022-10-26T01:22:53;5.1;;;3.6;;
17949;SDS011;9100;48.700;9.316;2022-10-26T01:23:00;4.7;;;4;;
17949;SDS011;9100;48.700;9.316;2022-10-26T01:23:58;4.7;;;4;;
17949;SDS011;9100;48.700;9.316;2022-10-26T01:24:57;4.7;;;4;;
17949;SDS011;9100;48.700;9.316;2022-10-26T01:25:59;4.7;;;4;;
17949;SDS011;9100;48.700;9.316;2022-10-26T01:26:56;4.7;;;4;;
17949;SDS011;9100;48.700;9.316;2022-10-26T01:27:52;4.7;;;4;;
17949;SDS011;9100;48.700;9.316;2022-10-26T01:27:59;9.3;;;3.8;;
17949;SDS011;9100;48.700;9.316;2022-10-26T01:28:59;9.3;;;3.8;;
17949;SDS011;9100;48.700;9.316;2022-10-26T01:29:58;9.3;;;3.8;;
17949;SDS011;9100;48.700;9.316;2022-10-26T01:30:52;9.3;;;3.8;;
17949;SDS011;9100;48.700;9.316;2022-10-26T01:31:53;9.3;;;3.8;;
17949;SDS011;9100;48.700;9.316;2022-10-26T01:32:56;9.3;;;3.8;;
17949;SDS011;9100;48.700;9.316;2022-10-26T01:33:04;9.8;;;4.3;;
17949;SDS011;9100;48.700;9.316;2022-10-26T01:33:53;9.8;;;4.3;;
17949;SDS011;9100;48.700;9.316;2022-10-26T01:34:53;9.8;;;4.3;;
17949;SDS011;9100;48.700;9.316;2022-10-26T01:35:53;9.8;;;4.3;;
17949;SDS011;9100;48.700;9.316;2022-10-26T01:36:53;9.8;;;4.3;;
17949;SDS011;9100;48.700;9.316;2022-10-26T01:37:53;9.8;;;4.3;;
17949;SDS011;9100;48.700;9.316;2022-10-26T01:38:05;7.4;;;4;;
17949;SDS011;9100;48.700;9.316;2022-10-26T01:38:54;7.4;;;4;;
17949;SDS011;9100;48.700;9.316;2022-10-26T01:39:52;7.4;;;4;;
17949;SDS011;9100;48.700;9.316;2022-10-26T01:40:53;7.4;;;4;;
17949;SDS011;9100;48.700;9.316;2022-10-26T01:41:53;7.4;;;4;;
17949;SDS011;9100;48.700;9.316;2022-10-26T01:42:52;7.4;;;4;;
17949;SDS011;9100;48.700;9.316;2022-10-26T01:42:59;8.2;;;4.4;;
17949;SDS011;9100;48.700;9.316;2022-10-26T01:43:53;8.2;;;4.4;;
17949;SDS011;9100;48.700;9.316;2022-10-26T01:44:53;8.2;;;4.4;;
17949;SDS011;9100;48.700;9.316;2022-10-26T01:45:52;8.2;;;4.4;;
17949;SDS011;9100;48.700;9.316;2022-10-26T01:46:52;8.2;;;4.4;;
17949;SDS011;9100;48.700;9.316;2022-10-26T01:47:52;8.2;;;4.4;;
17949;SDS011;9100;48.700;9.316;2022-10-26T01:47:59;4.8;;;3.7;;
17949;SDS011;9100;48.700;9.316;2022-10-26T01:48:54;4.8;;;3.7;;
17949;SDS011;9100;48.700;9.316;2022-10-26T01:49:53;4.8;;;3.7;;
17949;SDS011;9100;48.700;9.316;2022-10-26T01:50:52;4.8;;;3.7;;
17949;SDS011;9100;48.700;9.316;2022-10-26T01:51:52;4.8;;;3.7;;
17949;SDS011;9100;48.700;9.316;2022-10-26T01:52:52;4.8;;;3.7;;
17949;SDS011;9100;48.700;9.316;2022-10-26T01:52:59;3.8;;;3.4;;
17949;SDS011;9100;48.700;9.316;2022-10-26T01:53:52;3.8;;;3.4;;
17949;SDS011;9100;48.700;9.316;2022-10-26T01:54:58;3.8;;;3.4;;
17949;SDS011;9100;48.700;9.316;2022-10-26T01:55:52;3.8;;;3.4;;
17949;SDS011;9100;48.700;9.316;2022-10-26T01:56:52;3.8;;;3.4;;
17949;SDS011;9100;48.700;9.316;2022-10-26T01:57:52;3.8;;;3.4;;
17949;SDS011;9100;48.700;9.316;2022-10-26T01:58:01;3.8;;;3.5;;
17949;SDS011;9100;48.700;9.316;2022-10-26T01:58:55;3.8;;;3.5;;
17949;SDS011;9100;48.700;9.316;2022-10-26T01:59:56;3.8;;;3.5;;
17949;SDS011;9100;48.700;9.316;2022-10-26T02:00:54;3.8;;;3.5;;
17949;SDS011;9100;48.700;9.316;2022-10-26T02:01:59;3.8;;;3.5;;
17949;SDS011;9100;48.700;9.316;2022-10-26T02:02:53;3.8;;;3.5;;
17949;SDS011;9100;48.700;9.316;2022-10-26T02:02:59;6.3;;;4;;
17949;SDS011;9100;48.700;9.316;2022-10-26T02:03:53;6.3;;;4;;
17949;SDS011;9100;48.700;9.316;2022-10-26T02:04:57;6.3;;;4;;
17949;SDS011;9100;48.700;9.316;2022-10-26T02:05:57;6.3;;;4;;
17949;SDS011;9100;48.700;9.316;2022-10-26T02:06:54;6.3;;;4;;
17949;SDS011;9100;48.700;9.316;2022-10-26T02:07:54;6.3;;;4;;
17949;SDS011;9100;48.700;9.316;2022-10-26T02:08:02;7.9;;;4;;
17949;SDS011;9100;48.700;9.316;2022-10-26T02:08:55;7.9;;;4;;
17949;SDS011;9100;48.700;9.316;2022-10-26T02:09:55;7.9;;;4;;
17949;SDS011;9100;48.700;9.316;2022-10-26T02:10:56;7.9;;;4;;
17949;SDS011;9100;48.700;9.316;2022-10-26T02:11:52;7.9;;;4;;
17949;SDS011;9100;48.700;9.316;2022-10-26T02:12:54;7.9;;;4;;
17949;SDS011;9100;48.700;9.316;2022-10-26T02:13:00;6.1;;;3.1;;
17949;SDS011;9100;48.700;9.316;2022-10-26T02:13:53;6.1;;;3.1;;
17949;SDS011;9100;48.700;9.316;2022-10-26T02:14:53;6.1;;;3.1;;
17949;SDS011;9100;48.700;9.316;2022-10-26T02:15:53;6.1;;;3.1;;
17949;SDS011;9100;48.700;9.316;2022-10-26T02:16:53;6.1;;;3.1;;
17949;SDS011;9100;48.700;9.316;2022-10-26T02:17:53;6.1;;;3.1;;
17949;SDS011;9100;48.700;9.316;2022-10-26T02:17:59;11;;;3.5;;
17949;SDS011;9100;48.700;9.316;2022-10-26T02:18:54;11;;;3.5;;
17949;SDS011;9100;48.700;9.316;2022-10-26T02:19:53;11;;;3.5;;
17949;SDS011;9100;48.700;9.316;2022-10-26T02:20:53;11;;;3.5;;
17949;SDS011;9100;48.700;9.316;2022-10-26T02:21:53;11;;;3.5;;
17949;SDS011;9100;48.700;9.316;2022-10-26T02:22:52;11;;;3.5;;
17949;SDS011;9100;48.700;9.316;2022-10-26T02:22:59;5;;;3.1;;
17949;SDS011;9100;48.700;9.316;2022-10-26T02:23:53;5;;;3.1;;
17949;SDS011;9100;48.700;9.316;2022-10-26T02:24:52;5;;;3.1;;
17949;SDS011;9100;48.700;9.316;2022-10-26T02:25:54;5;;;3.1;;
17949;SDS011;9100;48.700;9.316;2022-10-26T02:26:52;5;;;3.1;;
17949;SDS011;9100;48.700;9.316;2022-10-26T02:27:54;5;;;3.1;;
17949;SDS011;9100;48.700;9.316;2022-10-26T02:28:00;5.3;;;3.8;;
17949;SDS011;9100;48.700;9.316;2022-10-26T02:28:53;5.3;;;3.8;;
17949;SDS011;9100;48.700;9.316;2022-10-26T02:29:53;5.3;;;3.8;;
17949;SDS011;9100;48.700;9.316;2022-10-26T02:30:52;5.3;;;3.8;;
17949;SDS011;9100;48.700;9.316;2022-10-26T02:31:52;5.3;;;3.8;;
17949;SDS011;9100;48.700;9.316;2022-10-26T02:32:53;5.3;;;3.8;;
17949;SDS011;9100;48.700;9.316;2022-10-26T02:32:59;5.7;;;3;;
17949;SDS011;9100;48.700;9.316;2022-10-26T02:33:52;5.7;;;3;;
17949;SDS011;9100;48.700;9.316;2022-10-26T02:34:52;5.7;;;3;;
17949;SDS011;9100;48.700;9.316;2022-10-26T02:35:52;5.7;;;3;;
17949;SDS011;9100;48.700;9.316;2022-10-26T02:36:52;5.7;;;3;;
17949;SDS011;9100;48.700;9.316;2022-10-26T02:37:52;5.7;;;3;;
17949;SDS011;9100;48.700;9.316;2022-10-26T02:37:59;8.1;;;3.3;;
17949;SDS011;9100;48.700;9.316;2022-10-26T02:38:52;8.1;;;3.3;;
17949;SDS011;9100;48.700;9.316;2022-10-26T02:39:52;8.1;;;3.3;;
17949;SDS011;9100;48.700;9.316;2022-10-26T02:40:52;8.1;;;3.3;;
17949;SDS011;9100;48.700;9.316;2022-10-26T02:41:52;8.1;;;3.3;;
17949;SDS011;9100;48.700;9.316;2022-10-26T02:42:53;8.1;;;3.3;;
17949;SDS011;9100;48.700;9.316;2022-10-26T02:42:59;3;;;2.8;;
17949;SDS011;9100;48.700;9.316;2022-10-26T02:43:53;3;;;2.8;;
17949;SDS011;9100;48.700;9.316;2022-10-26T02:44:53;3;;;2.8;;
17949;SDS011;9100;48.700;9.316;2022-10-26T02:45:52;3;;;2.8;;
17949;SDS011;9100;48.700;9.316;2022-10-26T02:46:52;3;;;2.8;;
17949;SDS011;9100;48.700;9.316;2022-10-26T02:47:52;3;;;2.8;;
17949;SDS011;9100;48.700;9.316;2022-10-26T02:47:59;6.2;;;3.2;;
17949;SDS011;9100;48.700;9.316;2022-10-26T02:48:52;6.2;;;3.2;;
17949;SDS011;9100;48.700;9.316;2022-10-26T02:49:52;6.2;;;3.2;;
17949;SDS011;9100;48.700;9.316;2022-10-26T02:50:53;6.2;;;3.2;;
17949;SDS011;9100;48.700;9.316;2022-10-26T02:51:53;6.2;;;3.2;;
17949;SDS011;9100;48.700;9.316;2022-10-26T02:52:53;6.2;;;3.2;;
17949;SDS011;9100;48.700;9.316;2022-10-26T02:53:00;6;;;3.3;;
17949;SDS011;9100;48.700;9.316;2022-10-26T02:53:53;6;;;3.3;;
17949;SDS011;9100;48.700;9.316;2022-10-26T02:54:53;6;;;3.3;;
17949;SDS011;9100;48.700;9.316;2022-10-26T02:55:52;6;;;3.3;;
17949;SDS011;9100;48.700;9.316;2022-10-26T02:56:53;6;;;3.3;;
17949;SDS011;9100;48.700;9.316;2022-10-26T02:57:53;6;;;3.3;;
17949;SDS011;9100;48.700;9.316;2022-10-26T02:58:01;10.6;;;3.1;;
17949;SDS011;9100;48.700;9.316;2022-10-26T02:58:53;10.6;;;3.1;;
17949;SDS011;9100;48.700;9.316;2022-10-26T02:59:52;10.6;;;3.1;;
17949;SDS011;9100;48.700;9.316;2022-10-26T03:00:52;10.6;;;3.1;;
17949;SDS011;9100;48.700;9.316;2022-10-26T03:01:52;10.6;;;3.1;;
17949;SDS011;9100;48.700;9.316;2022-10-26T03:02:53;10.6;;;3.1;;
17949;SDS011;9100;48.700;9.316;2022-10-26T03:02:59;3.2;;;3;;
17949;SDS011;9100;48.700;9.316;2022-10-26T03:03:55;3.2;;;3;;
17949;SDS011;9100;48.700;9.316;2022-10-26T03:04:52;3.2;;;3;;
17949;SDS011;9100;48.700;9.316;2022-10-26T03:05:52;3.2;;;3;;
17949;SDS011;9100;48.700;9.316;2022-10-26T03:06:53;3.2;;;3;;
17949;SDS011;9100;48.700;9.316;2022-10-26T03:07:52;3.2;;;3;;
17949;SDS011;9100;48.700;9.316;2022-10-26T03:07:59;7.7;;;3.2;;
17949;SDS011;9100;48.700;9.316;2022-10-26T03:08:52;7.7;;;3.2;;
17949;SDS011;9100;48.700;9.316;2022-10-26T03:09:52;7.7;;;3.2;;
17949;SDS011;9100;48.700;9.316;2022-10-26T03:10:52;7.7;;;3.2;;
17949;SDS011;9100;48.700;9.316;2022-10-26T03:11:52;7.7;;;3.2;;
17949;SDS011;9100;48.700;9.316;2022-10-26T03:12:52;7.7;;;3.2;;
17949;SDS011;9100;48.700;9.316;2022-10-26T03:12:59;3.4;;;3.1;;
17949;SDS011;9100;48.700;9.316;2022-10-26T03:13:52;3.4;;;3.1;;
17949;SDS011;9100;48.700;9.316;2022-10-26T03:14:52;3.4;;;3.1;;
17949;SDS011;9100;48.700;9.316;2022-10-26T03:15:53;3.4;;;3.1;;
17949;SDS011;9100;48.700;9.316;2022-10-26T03:16:52;3.4;;;3.1;;
17949;SDS011;9100;48.700;9.316;2022-10-26T03:17:52;3.4;;;3.1;;
17949;SDS011;9100;48.700;9.316;2022-10-26T03:17:59;4.5;;;3.6;;
17949;SDS011;9100;48.700;9.316;2022-10-26T03:18:52;4.5;;;3.6;;
17949;SDS011;9100;48.700;9.316;2022-10-26T03:19:52;4.5;;;3.6;;
17949;SDS011;9100;48.700;9.316;2022-10-26T03:20:52;4.5;;;3.6;;
17949;SDS011;9100;48.700;9.316;2022-10-26T03:21:52;4.5;;;3.6;;
17949;SDS011;9100;48.700;9.316;2022-10-26T03:22:52;4.5;;;3.6;;
17949;SDS011;9100;48.700;9.316;2022-10-26T03:22:59;7.8;;;3.8;;
17949;SDS011;9100;48.700;9.316;2022-10-26T03:23:52;7.8;;;3.8;;
17949;SDS011;9100;48.700;9.316;2022-10-26T03:24:52;7.8;;;3.8;;
17949;SDS011;9100;48.700;9.316;2022-10-26T03:25:54;7.8;;;3.8;;
17949;SDS011;9100;48.700;9.316;2022-10-26T03:26:52;7.8;;;3.8;;
17949;SDS011;9100;48.700;9.316;2022-10-26T03:27:56;7.8;;;3.8;;
17949;SDS011;9100;48.700;9.316;2022-10-26T03:27:59;6.9;;;3.2;;
17949;SDS011;9100;48.700;9.316;2022-10-26T03:28:52;6.9;;;3.2;;
17949;SDS011;9100;48.700;9.316;2022-10-26T03:29:52;6.9;;;3.2;;
17949;SDS011;9100;48.700;9.316;2022-10-26T03:30:52;6.9;;;3.2;;
17949;SDS011;9100;48.700;9.316;2022-10-26T03:31:52;6.9;;;3.2;;
17949;SDS011;9100;48.700;9.316;2022-10-26T03:32:52;6.9;;;3.2;;
17949;SDS011;9100;48.700;9.316;2022-10-26T03:32:59;5.3;;;3.4;;
17949;SDS011;9100;48.700;9.316;2022-10-26T03:33:52;5.3;;;3.4;;
17949;SDS011;9100;48.700;9.316;2022-10-26T03:34:52;5.3;;;3.4;;
17949;SDS011;9100;48.700;9.316;2022-10-26T03:35:53;5.3;;;3.4;;
17949;SDS011;9100;48.700;9.316;2022-10-26T03:36:52;5.3;;;3.4;;
17949;SDS011;9100;48.700;9.316;2022-10-26T03:37:52;5.3;;;3.4;;
17949;SDS011;9100;48.700;9.316;2022-10-26T03:37:59;3.7;;;3.4;;
17949;SDS011;9100;48.700;9.316;2022-10-26T03:38:52;3.7;;;3.4;;
17949;SDS011;9100;48.700;9.316;2022-10-26T03:39:52;3.7;;;3.4;;
17949;SDS011;9100;48.700;9.316;2022-10-26T03:40:52;3.7;;;3.4;;
17949;SDS011;9100;48.700;9.316;2022-10-26T03:41:52;3.7;;;3.4;;
17949;SDS011;9100;48.700;9.316;2022-10-26T03:42:52;3.7;;;3.4;;
17949;SDS011;9100;48.700;9.316;2022-10-26T03:42:59;3.5;;;3.2;;
17949;SDS011;9100;48.700;9.316;2022-10-26T03:43:52;3.5;;;3.2;;
17949;SDS011;9100;48.700;9.316;2022-10-26T03:44:52;3.5;;;3.2;;
17949;SDS011;9100;48.700;9.316;2022-10-26T03:45:52;3.5;;;3.2;;
17949;SDS011;9100;48.700;9.316;2022-10-26T03:46:52;3.5;;;3.2;;
17949;SDS011;9100;48.700;9.316;2022-10-26T03:47:52;3.5;;;3.2;;
17949;SDS011;9100;48.700;9.316;2022-10-26T03:47:59;3.5;;;3.2;;
17949;SDS011;9100;48.700;9.316;2022-10-26T03:48:52;3.5;;;3.2;;
17949;SDS011;9100;48.700;9.316;2022-10-26T03:49:52;3.5;;;3.2;;
17949;SDS011;9100;48.700;9.316;2022-10-26T03:50:55;3.5;;;3.2;;
17949;SDS011;9100;48.700;9.316;2022-10-26T03:51:52;3.5;;;3.2;;
17949;SDS011;9100;48.700;9.316;2022-10-26T03:52:52;3.5;;;3.2;;
17949;SDS011;9100;48.700;9.316;2022-10-26T03:52:59;5.5;;;3.4;;
17949;SDS011;9100;48.700;9.316;2022-10-26T03:53:52;5.5;;;3.4;;
17949;SDS011;9100;48.700;9.316;2022-10-26T03:54:52;5.5;;;3.4;;
17949;SDS011;9100;48.700;9.316;2022-10-26T03:55:52;5.5;;;3.4;;
17949;SDS011;9100;48.700;9.316;2022-10-26T03:56:52;5.5;;;3.4;;
17949;SDS011;9100;48.700;9.316;2022-10-26T03:57:52;5.5;;;3.4;;
17949;SDS011;9100;48.700;9.316;2022-10-26T03:57:59;3.8;;;3.2;;
17949;SDS011;9100;48.700;9.316;2022-10-26T03:58:52;3.8;;;3.2;;
17949;SDS011;9100;48.700;9.316;2022-10-26T03:59:52;3.8;;;3.2;;
17949;SDS011;9100;48.700;9.316;2022-10-26T04:00:52;3.8;;;3.2;;
17949;SDS011;9100;48.700;9.316;2022-10-26T04:01:52;3.8;;;3.2;;
17949;SDS011;9100;48.700;9.316;2022-10-26T04:02:53;3.8;;;3.2;;
17949;SDS011;9100;48.700;9.316;2022-10-26T04:02:59;3.2;;;2.9;;
17949;SDS011;9100;48.700;9.316;2022-10-26T04:03:52;3.2;;;2.9;;
17949;SDS011;9100;48.700;9.316;2022-10-26T04:04:52;3.2;;;2.9;;
17949;SDS011;9100;48.700;9.316;2022-10-26T04:05:52;3.2;;;2.9;;
17949;SDS011;9100;48.700;9.316;2022-10-26T04:06:52;3.2;;;2.9;;
17949;SDS011;9100;48.700;9.316;2022-10-26T04:07:52;3.2;;;2.9;;
17949;SDS011;9100;48.700;9.316;2022-10-26T04:07:59;5.3;;;2.9;;
17949;SDS011;9100;48.700;9.316;2022-10-26T04:08:52;5.3;;;2.9;;
17949;SDS011;9100;48.700;9.316;2022-10-26T04:09:52;5.3;;;2.9;;
17949;SDS011;9100;48.700;9.316;2022-10-26T04:10:52;5.3;;;2.9;;
17949;SDS011;9100;48.700;9.316;2022-10-26T04:11:52;5.3;;;2.9;;
17949;SDS011;9100;48.700;9.316;2022-10-26T04:12:52;5.3;;;2.9;;
17949;SDS011;9100;48.700;9.316;2022-10-26T04:12:59;5.2;;;2.6;;
17949;SDS011;9100;48.700;9.316;2022-10-26T04:13:52;5.2;;;2.6;;
17949;SDS011;9100;48.700;9.316;2022-10-26T04:14:52;5.2;;;2.6;;
17949;SDS011;9100;48.700;9.316;2022-10-26T04:15:52;5.2;;;2.6;;
17949;SDS011;9100;48.700;9.316;2022-10-26T04:16:52;5.2;;;2.6;;
17949;SDS011;9100;48.700;9.316;2022-10-26T04:17:55;5.2;;;2.6;;
17949;SDS011;9100;48.700;9.316;2022-10-26T04:17:59;3.6;;;2.5;;
17949;SDS011;9100;48.700;9.316;2022-10-26T04:18:52;3.6;;;2.5;;
17949;SDS011;9100;48.700;9.316;2022-10-26T04:19:52;3.6;;;2.5;;
17949;SDS011;9100;48.700;9.316;2022-10-26T04:20:52;3.6;;;2.5;;
17949;SDS011;9100;48.700;9.316;2022-10-26T04:21:52;3.6;;;2.5;;
17949;SDS011;9100;48.700;9.316;2022-10-26T04:22:55;3.6;;;2.5;;
17949;SDS011;9100;48.700;9.316;2022-10-26T04:23:00;3.5;;;2.7;;
17949;SDS011;9100;48.700;9.316;2022-10-26T04:23:52;3.5;;;2.7;;
17949;SDS011;9100;48.700;9.316;2022-10-26T04:24:52;3.5;;;2.7;;
17949;SDS011;9100;48.700;9.316;2022-10-26T04:25:52;3.5;;;2.7;;
17949;SDS011;9100;48.700;9.316;2022-10-26T04:26:52;3.5;;;2.7;;
17949;SDS011;9100;48.700;9.316;2022-10-26T04:27:52;3.5;;;2.7;;
17949;SDS011;9100;48.700;9.316;2022-10-26T04:27:59;10.2;;;3.2;;
17949;SDS011;9100;48.700;9.316;2022-10-26T04:28:52;10.2;;;3.2;;
17949;SDS011;9100;48.700;9.316;2022-10-26T04:29:52;10.2;;;3.2;;
17949;SDS011;9100;48.700;9.316;2022-10-26T04:30:52;10.2;;;3.2;;
17949;SDS011;9100;48.700;9.316;2022-10-26T04:31:52;10.2;;;3.2;;
17949;SDS011;9100;48.700;9.316;2022-10-26T04:32:52;10.2;;;3.2;;
17949;SDS011;9100;48.700;9.316;2022-10-26T04:32:59;8.3;;;3.8;;
17949;SDS011;9100;48.700;9.316;2022-10-26T04:33:52;8.3;;;3.8;;
17949;SDS011;9100;48.700;9.316;2022-10-26T04:34:52;8.3;;;3.8;;
17949;SDS011;9100;48.700;9.316;2022-10-26T04:35:57;8.3;;;3.8;;
17949;SDS011;9100;48.700;9.316;2022-10-26T04:36:53;8.3;;;3.8;;
17949;SDS011;9100;48.700;9.316;2022-10-26T04:37:55;8.3;;;3.8;;
17949;SDS011;9100;48.700;9.316;2022-10-26T04:37:59;4.9;;;3.5;;
17949;SDS011;9100;48.700;9.316;2022-10-26T04:38:52;4.9;;;3.5;;
17949;SDS011;9100;48.700;9.316;2022-10-26T04:39:52;4.9;;;3.5;;
17949;SDS011;9100;48.700;9.316;2022-10-26T04:40:52;4.9;;;3.5;;
17949;SDS011;9100;48.700;9.316;2022-10-26T04:41:52;4.9;;;3.5;;
17949;SDS011;9100;48.700;9.316;2022-10-26T04:42:52;4.9;;;3.5;;
17949;SDS011;9100;48.700;9.316;2022-10-26T04:42:59;8.2;;;3.1;;
17949;SDS011;9100;48.700;9.316;2022-10-26T04:43:52;8.2;;;3.1;;
17949;SDS011;9100;48.700;9.316;2022-10-26T04:44:52;8.2;;;3.1;;
17949;SDS011;9100;48.700;9.316;2022-10-26T04:45:53;8.2;;;3.1;;
17949;SDS011;9100;48.700;9.316;2022-10-26T04:46:52;8.2;;;3.1;;
17949;SDS011;9100;48.700;9.316;2022-10-26T04:48:01;8.2;;;3.1;;
17949;SDS011;9100;48.700;9.316;2022-10-26T04:48:01;6.9;;;3.7;;
17949;SDS011;9100;48.700;9.316;2022-10-26T04:48:52;6.9;;;3.7;;
17949;SDS011;9100;48.700;9.316;2022-10-26T04:49:52;6.9;;;3.7;;
17949;SDS011;9100;48.700;9.316;2022-10-26T04:50:52;6.9;;;3.7;;
17949;SDS011;9100;48.700;9.316;2022-10-26T04:51:52;6.9;;;3.7;;
17949;SDS011;9100;48.700;9.316;2022-10-26T04:52:52;6.9;;;3.7;;
17949;SDS011;9100;48.700;9.316;2022-10-26T04:52:59;3;;;2.7;;
17949;SDS011;9100;48.700;9.316;2022-10-26T04:53:52;3;;;2.7;;
17949;SDS011;9100;48.700;9.316;2022-10-26T04:54:52;3;;;2.7;;
17949;SDS011;9100;48.700;9.316;2022-10-26T04:55:55;3;;;2.7;;
17949;SDS011;9100;48.700;9.316;2022-10-26T04:56:52;3;;;2.7;;
17949;SDS011;9100;48.700;9.316;2022-10-26T04:57:52;3;;;2.7;;
17949;SDS011;9100;48.700;9.316;2022-10-26T04:57:59;4.3;;;3.1;;
17949;SDS011;9100;48.700;9.316;2022-10-26T04:58:52;4.3;;;3.1;;
17949;SDS011;9100;48.700;9.316;2022-10-26T04:59:52;4.3;;;3.1;;
17949;SDS011;9100;48.700;9.316;2022-10-26T05:00:52;4.3;;;3.1;;
17949;SDS011;9100;48.700;9.316;2022-10-26T05:01:52;4.3;;;3.1;;
17949;SDS011;9100;48.700;9.316;2022-10-26T05:02:57;4.3;;;3.1;;
17949;SDS011;9100;48.700;9.316;2022-10-26T05:02:59;5.5;;;2.6;;
17949;SDS011;9100;48.700;9.316;2022-10-26T05:03:52;5.5;;;2.6;;
17949;SDS011;9100;48.700;9.316;2022-10-26T05:04:52;5.5;;;2.6;;
17949;SDS011;9100;48.700;9.316;2022-10-26T05:05:52;5.5;;;2.6;;
17949;SDS011;9100;48.700;9.316;2022-10-26T05:06:52;5.5;;;2.6;;
17949;SDS011;9100;48.700;9.316;2022-10-26T05:07:52;5.5;;;2.6;;
17949;SDS011;9100;48.700;9.316;2022-10-26T05:07:59;3.3;;;3.1;;
17949;SDS011;9100;48.700;9.316;2022-10-26T05:08:52;3.3;;;3.1;;
17949;SDS011;9100;48.700;9.316;2022-10-26T05:09:52;3.3;;;3.1;;
17949;SDS011;9100;48.700;9.316;2022-10-26T05:10:52;3.3;;;3.1;;
17949;SDS011;9100;48.700;9.316;2022-10-26T05:11:52;3.3;;;3.1;;
17949;SDS011;9100;48.700;9.316;2022-10-26T05:12:52;3.3;;;3.1;;
17949;SDS011;9100;48.700;9.316;2022-10-26T05:12:59;3.9;;;3.4;;
17949;SDS011;9100;48.700;9.316;2022-10-26T05:13:52;3.9;;;3.4;;
17949;SDS011;9100;48.700;9.316;2022-10-26T05:14:52;3.9;;;3.4;;
17949;SDS011;9100;48.700;9.316;2022-10-26T05:15:52;3.9;;;3.4;;
17949;SDS011;9100;48.700;9.316;2022-10-26T05:16:52;3.9;;;3.4;;
17949;SDS011;9100;48.700;9.316;2022-10-26T05:17:53;3.9;;;3.4;;
17949;SDS011;9100;48.700;9.316;2022-10-26T05:17:59;5.2;;;3.9;;